This is the latest recevied weather packets stored in our database for station/object SP9TKN-1. If no packets are shown the sender has not sent any weather packets the latest 10 day(s).
| Time | Temp. | Humidity | Pressure | Rain* | Wind** | Luminosity | Snow |
|---|---|---|---|---|---|---|---|
| 1777536959 | 9.44° C | 30% | 1031.7 hPa | - | - | - | - |
| 1777536061 | 8.89° C | 30% | 1031.8 hPa | - | - | - | - |
| 1777535159 | 8.33° C | 32% | 1031.8 hPa | - | - | - | - |
| 1777534259 | 7.78° C | 33% | 1031.8 hPa | - | - | - | - |
| 1777533359 | 7.22° C | 36% | 1031.8 hPa | - | - | - | - |
| 1777532461 | 6.67° C | 37% | 1032 hPa | - | - | - | - |
| 1777531559 | 6.11° C | 40% | 1032 hPa | - | - | - | - |
| 1777530659 | 5.56° C | 44% | 1032.2 hPa | - | - | - | - |
| 1777529759 | 5° C | 46% | 1032.1 hPa | - | - | - | - |
| 1777528859 | 4.44° C | 48% | 1032 hPa | - | - | - | - |
| 1777527960 | 3.89° C | 49% | 1032 hPa | - | - | - | - |
| 1777527059 | 3.33° C | 51% | 1032 hPa | - | - | - | - |
| 1777526159 | 3.33° C | 52% | 1032 hPa | - | - | - | - |
| 1777525258 | 2.78° C | 54% | 1032 hPa | - | - | - | - |
| 1777524358 | 2.78° C | 54% | 1031.8 hPa | - | - | - | - |
| 1777523458 | 2.78° C | 54% | 1031.7 hPa | - | - | - | - |
| 1777522558 | 2.22° C | 54% | 1031.6 hPa | - | - | - | - |
| 1777521658 | 2.22° C | 54% | 1031.5 hPa | - | - | - | - |
| 1777520760 | 2.22° C | 54% | 1031.5 hPa | - | - | - | - |
| 1777519858 | 2.22° C | 53% | 1031.4 hPa | - | - | - | - |
| 1777518959 | 2.22° C | 54% | 1031.5 hPa | - | - | - | - |
| 1777518058 | 2.78° C | 53% | 1031.5 hPa | - | - | - | - |
| 1777516258 | 2.78° C | 53% | 1031.4 hPa | - | - | - | - |
| 1777515358 | 2.78° C | 53% | 1031.3 hPa | - | - | - | - |
| 1777514459 | 2.78° C | 53% | 1031.2 hPa | - | - | - | - |
* Rain since midnight (hover to see other rain measurements)
** Current wind speed in m/s (hover to see current wind gust speed)